Garnett Industrial Airport (K68)
Garnett, KS
Field Elevation: 989
Lat: 38°16.64N  Long: 95°12.91W
CTAF/Unicom Freq: 122.8000
   
     For Weather-by-Phone, call 785-448-3254
Weather Advisories
2016-02-10   19:56 Z
Altimeter 29.95" Hg
Wind 210° @ 13 KT
Gusts 18 KT
Visibility 10 SM
Temperature 8° C (46° F)
Dewpoint -6° C (21° F)
Relative Humidity 37%
Density Altitude --
Condensation Altitude 7,900 feet
Wind Chill: 4° C (39° F)
Wind and Runways
Indicated Runway = 19
Headwind = 12 kt
Crosswind = 4 kt
History
 
 
 
More Info
 
NOAA Forecast
 
Airport IQ 5010
(FLV) Sherman Airfield
(GRE) Greenville
 
about Belfort Instrument
 
FAA Disclaimer: The data displayed is for advisory purposes only and is not to be used for flight planning or operations. For official data, please call 785-448-3254 to hear the current automated AWOS voice message.
  METAR K68 101956Z AUTO 21013G18KT 10 SM 08/M06 A2995